createdAt,value
2018-04-27T00:01:31.532Z,24.43
2018-04-27T00:03:58.997Z,20.90
2018-04-27T00:06:26.522Z,19.37
2018-04-27T00:08:54.108Z,24.27
2018-04-27T00:11:21.623Z,18.53
2018-04-27T00:13:49.206Z,22.07
2018-04-27T00:16:16.635Z,14.57
2018-04-27T00:18:44.969Z,21.00
2018-04-27T00:21:12.394Z,17.40
2018-04-27T00:23:39.917Z,29.03
2018-04-27T00:26:07.481Z,25.23
2018-04-27T00:28:35.023Z,24.03
2018-04-27T00:31:05.794Z,17.97
2018-04-27T00:33:33.272Z,22.50
2018-04-27T00:36:00.775Z,30.03
2018-04-27T00:38:28.303Z,43.23
2018-04-27T00:40:55.844Z,21.37
2018-04-27T00:43:23.289Z,26.37
2018-04-27T00:45:50.830Z,20.40
2018-04-27T00:48:18.376Z,16.83
2018-04-27T00:50:46.979Z,18.03
2018-04-27T00:53:14.605Z,25.90
2018-04-27T00:55:43.129Z,24.23
2018-04-27T00:58:10.707Z,22.87
2018-04-27T01:00:38.236Z,30.63
2018-04-27T01:03:05.844Z,23.43
2018-04-27T01:05:33.358Z,24.70
2018-04-27T01:08:00.907Z,28.53
2018-04-27T01:10:28.380Z,25.10
2018-04-27T01:12:55.878Z,35.07
2018-04-27T01:15:23.360Z,19.37
2018-04-27T01:17:50.835Z,28.03
2018-04-27T01:20:18.357Z,30.47
2018-04-27T01:22:45.879Z,26.47
2018-04-27T01:25:13.514Z,29.87
2018-04-27T01:27:41.046Z,48.87
2018-04-27T01:30:08.644Z,37.57
2018-04-27T01:32:36.955Z,24.77
2018-04-27T01:35:04.568Z,38.90
2018-04-27T01:37:32.089Z,27.20
2018-04-27T01:39:59.659Z,28.47
2018-04-27T01:42:27.061Z,24.90
2018-04-27T01:44:54.617Z,24.30
2018-04-27T01:47:22.180Z,24.57
2018-04-27T01:49:49.728Z,28.43
2018-04-27T01:52:18.036Z,24.50
2018-04-27T01:54:45.510Z,35.53
2018-04-27T01:57:13.078Z,29.80
2018-04-27T01:59:40.485Z,25.77
2018-04-27T02:02:08.001Z,32.33
2018-04-27T02:04:35.505Z,34.87
2018-04-27T02:07:03.382Z,28.13
2018-04-27T02:09:30.835Z,27.30
2018-04-27T02:11:58.279Z,39.03
2018-04-27T02:14:25.776Z,33.30
2018-04-27T02:16:54.282Z,28.93
2018-04-27T02:19:21.770Z,30.73
2018-04-27T02:21:49.268Z,36.33
2018-04-27T02:24:16.981Z,32.10
2018-04-27T02:26:44.505Z,25.00
2018-04-27T02:29:12.765Z,31.50
2018-04-27T02:31:40.390Z,26.37
2018-04-27T02:34:07.900Z,35.33
2018-04-27T02:36:35.328Z,30.13
2018-04-27T02:39:02.825Z,39.13
2018-04-27T02:41:31.140Z,31.53
2018-04-27T02:43:58.603Z,24.53
2018-04-27T02:46:26.859Z,32.97
2018-04-27T02:48:54.353Z,23.63
2018-04-27T02:51:21.861Z,33.73
2018-04-27T02:53:49.348Z,23.50
2018-04-27T02:56:16.836Z,22.10
2018-04-27T02:58:45.098Z,28.47
2018-04-27T03:01:12.571Z,23.90
2018-04-27T03:03:40.082Z,32.67
2018-04-27T03:06:07.582Z,24.77
2018-04-27T03:08:35.135Z,32.10
2018-04-27T03:11:02.792Z,33.60
2018-04-27T03:13:30.314Z,34.23
2018-04-27T03:15:58.570Z,22.83
2018-04-27T03:18:26.104Z,27.03
2018-04-27T03:20:53.619Z,28.10
2018-04-27T03:23:21.293Z,36.87
2018-04-27T03:25:48.856Z,31.03
2018-04-27T03:28:16.437Z,26.50
2018-04-27T03:30:44.139Z,20.70
2018-04-27T03:33:11.581Z,22.33
2018-04-27T03:35:39.091Z,24.97
2018-04-27T03:38:06.555Z,29.90
2018-04-27T03:40:34.842Z,21.87
2018-04-27T03:43:03.097Z,24.40
2018-04-27T03:45:30.615Z,21.00
2018-04-27T03:47:58.142Z,23.97
2018-04-27T03:50:25.621Z,22.60
2018-04-27T03:52:53.852Z,32.30
2018-04-27T03:55:21.365Z,25.10
2018-04-27T03:57:48.881Z,18.47
2018-04-27T04:00:16.419Z,26.37
2018-04-27T04:02:43.905Z,21.77
2018-04-27T04:05:11.431Z,28.43
2018-04-27T04:07:38.886Z,28.03
2018-04-27T04:10:06.351Z,24.80
2018-04-27T04:12:33.888Z,22.87
2018-04-27T04:15:02.183Z,37.63
2018-04-27T04:17:30.484Z,21.07
2018-04-27T04:19:58.025Z,26.17
2018-04-27T04:22:25.609Z,33.53
2018-04-27T04:24:54.323Z,26.53
2018-04-27T04:27:22.618Z,20.63
2018-04-27T04:29:50.167Z,20.73
2018-04-27T04:32:17.798Z,31.03
2018-04-27T04:34:45.241Z,19.20
2018-04-27T04:37:13.591Z,22.10
2018-04-27T04:39:41.017Z,26.03
2018-04-27T04:42:08.554Z,23.63
2018-04-27T04:44:36.832Z,17.53
2018-04-27T04:47:04.383Z,23.10
2018-04-27T04:49:31.939Z,24.50
2018-04-27T04:51:59.547Z,31.60
2018-04-27T04:54:27.793Z,39.87
2018-04-27T04:56:55.304Z,29.13
2018-04-27T04:59:22.772Z,30.20
2018-04-27T05:01:50.401Z,39.60
2018-04-27T05:04:17.883Z,35.07
2018-04-27T05:06:45.358Z,26.77
2018-04-27T05:09:12.933Z,25.73
2018-04-27T05:11:40.422Z,26.50
2018-04-27T05:14:07.936Z,31.50
2018-04-27T05:16:35.440Z,29.93
2018-04-27T05:19:02.894Z,16.13
2018-04-27T05:21:30.428Z,18.00
2018-04-27T05:23:57.913Z,25.80
2018-04-27T05:26:25.433Z,18.63
2018-04-27T05:28:52.961Z,15.00
2018-04-27T05:31:20.489Z,16.10
2018-04-27T05:33:48.782Z,12.03
2018-04-27T05:36:16.201Z,25.67
2018-04-27T05:38:45.326Z,25.23
2018-04-27T05:41:12.733Z,10.37
2018-04-27T05:43:40.285Z,17.73
2018-04-27T05:46:07.851Z,15.67
2018-04-27T05:48:35.365Z,13.90
2018-04-27T05:51:02.874Z,9.80
2018-04-27T05:53:31.240Z,15.20
2018-04-27T05:55:59.516Z,14.57
2018-04-27T05:58:27.042Z,12.67
2018-04-27T06:00:54.546Z,14.10
2018-04-27T06:03:22.322Z,8.80
2018-04-27T06:05:50.584Z,6.10
2018-04-27T06:08:18.134Z,11.30
2018-04-27T06:10:45.616Z,20.43
2018-04-27T06:13:13.152Z,8.80
2018-04-27T06:15:40.683Z,10.80
2018-04-27T06:18:09.386Z,10.00
2018-04-27T06:20:37.220Z,10.00
2018-04-27T06:23:04.699Z,13.53
2018-04-27T06:25:32.188Z,5.70
2018-04-27T06:27:59.644Z,9.20
2018-04-27T06:30:27.277Z,6.80
2018-04-27T06:32:54.713Z,13.30
2018-04-27T06:35:22.259Z,8.93
2018-04-27T06:37:49.764Z,9.13
2018-04-27T06:40:17.179Z,11.30
2018-04-27T06:42:45.478Z,3.80
2018-04-27T06:45:13.801Z,11.40
2018-04-27T06:47:41.286Z,3.90
2018-04-27T06:50:08.804Z,4.67
2018-04-27T06:52:36.831Z,7.63
2018-04-27T06:55:04.292Z,4.93
2018-04-27T06:57:31.821Z,9.30
2018-04-27T06:59:59.364Z,9.10
2018-04-27T07:02:27.073Z,4.90
2018-04-27T07:04:54.570Z,15.13
2018-04-27T07:07:22.852Z,10.33
2018-04-27T07:09:51.144Z,2.53
2018-04-27T07:12:18.652Z,7.90
2018-04-27T07:14:46.856Z,4.00
2018-04-27T07:17:14.369Z,8.33
2018-04-27T07:19:41.869Z,8.50
2018-04-27T07:22:09.340Z,8.43
2018-04-27T07:24:36.839Z,10.73
2018-04-27T07:27:04.361Z,11.33
2018-04-27T07:29:32.281Z,6.30
2018-04-27T07:31:59.807Z,7.93
2018-04-27T07:34:28.134Z,10.10
2018-04-27T07:36:55.633Z,7.20
2018-04-27T07:39:23.140Z,8.20
2018-04-27T07:41:50.628Z,5.47
2018-04-27T07:44:18.301Z,8.40
2018-04-27T07:46:46.529Z,5.10
2018-04-27T07:49:13.960Z,4.67
2018-04-27T07:51:41.816Z,7.37
2018-04-27T07:54:09.346Z,5.80
2018-04-27T07:56:36.859Z,7.17
2018-04-27T07:59:04.572Z,6.83
2018-04-27T08:01:32.056Z,8.30
2018-04-27T08:03:59.621Z,8.93
2018-04-27T08:06:27.153Z,10.20
2018-04-27T08:08:54.723Z,9.20
2018-04-27T08:11:22.925Z,8.07
2018-04-27T08:13:50.428Z,7.60
2018-04-27T08:16:17.945Z,7.27
2018-04-27T08:18:46.819Z,17.03
2018-04-27T08:21:14.359Z,3.50
2018-04-27T08:23:42.346Z,6.30
2018-04-27T08:26:09.951Z,9.67
2018-04-27T08:28:37.632Z,14.03
2018-04-27T08:31:05.940Z,7.83
2018-04-27T08:33:33.497Z,7.40
2018-04-27T08:36:01.042Z,10.30
2018-04-27T08:38:28.519Z,5.83
2018-04-27T08:40:56.043Z,9.70
2018-04-27T08:43:24.280Z,3.10
2018-04-27T08:45:52.114Z,8.30
2018-04-27T08:48:20.605Z,4.27
2018-04-27T08:50:48.094Z,5.17
2018-04-27T08:53:15.611Z,7.87
2018-04-27T08:55:43.761Z,5.97
2018-04-27T08:58:11.549Z,5.27
2018-04-27T09:00:39.814Z,7.00
2018-04-27T09:03:08.199Z,4.63
2018-04-27T09:05:36.257Z,10.03
2018-04-27T09:08:03.997Z,5.07
2018-04-27T09:10:31.472Z,6.30
2018-04-27T09:12:59.874Z,9.10
2018-04-27T09:15:27.398Z,2.83
2018-04-27T09:17:55.328Z,9.27
2018-04-27T09:20:23.579Z,5.63
2018-04-27T09:22:51.323Z,6.17
2018-04-27T09:25:18.776Z,4.43
2018-04-27T09:27:46.410Z,4.30
2018-04-27T09:30:13.937Z,8.93
2018-04-27T09:32:41.473Z,4.80
2018-04-27T09:35:09.753Z,4.03
2018-04-27T09:37:37.295Z,9.30
2018-04-27T09:40:05.592Z,5.63
2018-04-27T09:42:33.449Z,3.73
2018-04-27T09:45:01.008Z,4.10
2018-04-27T09:47:28.421Z,10.63
2018-04-27T09:49:56.531Z,12.47
2018-04-27T09:52:24.465Z,3.60
2018-04-27T09:54:52.014Z,5.37
2018-04-27T09:57:20.496Z,5.80
2018-04-27T09:59:48.619Z,9.30
2018-04-27T10:02:16.128Z,4.83
2018-04-27T10:04:43.779Z,5.87
2018-04-27T10:07:11.241Z,5.40
2018-04-27T10:09:39.577Z,4.37
2018-04-27T10:12:07.084Z,8.40
2018-04-27T10:14:35.372Z,6.43
2018-04-27T10:17:02.921Z,7.67
2018-04-27T10:19:30.424Z,3.83
2018-04-27T10:21:58.443Z,4.67
2018-04-27T10:24:25.942Z,1.67
2018-04-27T10:26:54.216Z,15.73
2018-04-27T10:29:22.694Z,9.50
2018-04-27T10:31:50.263Z,1.77
2018-04-27T10:34:18.516Z,8.50
2018-04-27T10:36:46.873Z,3.13
2018-04-27T10:39:14.432Z,2.43
2018-04-27T10:41:42.082Z,5.37
2018-04-27T10:44:10.230Z,2.57
2018-04-27T10:46:39.746Z,12.43
2018-04-27T10:49:08.048Z,4.90
2018-04-27T10:51:36.652Z,6.63
2018-04-27T10:54:04.980Z,4.03
2018-04-27T10:56:32.449Z,6.97
2018-04-27T10:59:00.029Z,4.17
2018-04-27T11:01:28.337Z,2.17
2018-04-27T11:03:55.882Z,2.90
2018-04-27T11:06:24.089Z,7.60
2018-04-27T11:08:52.434Z,17.33
2018-04-27T11:11:19.955Z,8.43
2018-04-27T11:13:47.445Z,3.10
2018-04-27T11:16:14.976Z,5.97
2018-04-27T11:18:42.458Z,6.70
2018-04-27T11:21:10.265Z,4.07
2018-04-27T11:23:37.790Z,8.90
2018-04-27T11:26:05.340Z,2.90
2018-04-27T11:28:32.758Z,5.13
2018-04-27T11:31:00.354Z,2.57
2018-04-27T11:33:29.463Z,4.43
2018-04-27T11:35:57.197Z,1.87
2018-04-27T11:38:24.759Z,5.30
2018-04-27T11:40:52.283Z,4.93
2018-04-27T11:43:19.794Z,3.10
2018-04-27T11:45:47.322Z,2.43
2018-04-27T11:48:15.598Z,2.30
2018-04-27T11:50:43.142Z,2.33
2018-04-27T11:53:10.687Z,2.27
2018-04-27T11:55:38.558Z,5.43
2018-04-27T11:58:06.004Z,6.30
2018-04-27T12:00:35.030Z,3.10
2018-04-27T12:03:03.329Z,3.20
2018-04-27T12:05:32.169Z,2.33
2018-04-27T12:07:59.801Z,3.30
2018-04-27T12:10:27.436Z,3.37
2018-04-27T12:12:56.066Z,2.57
2018-04-27T12:15:24.392Z,4.93
2018-04-27T12:17:53.275Z,3.80
2018-04-27T12:20:23.056Z,2.43
2018-04-27T12:22:51.406Z,6.00
2018-04-27T12:25:20.344Z,1.30
2018-04-27T12:27:47.953Z,1.27
2018-04-27T12:30:19.949Z,3.83
2018-04-27T12:32:47.773Z,4.63
2018-04-27T12:35:15.639Z,5.37
2018-04-27T12:37:43.312Z,2.30
2018-04-27T12:40:11.695Z,2.20
2018-04-27T12:42:39.276Z,1.20
2018-04-27T12:45:06.891Z,3.53
2018-04-27T12:47:35.157Z,1.33
2018-04-27T12:50:03.342Z,1.77
2018-04-27T12:52:31.763Z,1.30
2018-04-27T12:54:59.683Z,2.50
2018-04-27T12:57:27.918Z,2.90
2018-04-27T12:59:55.892Z,4.37
2018-04-27T13:02:23.700Z,2.60
2018-04-27T13:04:51.372Z,6.43
2018-04-27T13:07:19.226Z,5.20
2018-04-27T13:09:47.868Z,2.00
2018-04-27T13:12:15.370Z,3.33
2018-04-27T13:14:43.600Z,2.60
2018-04-27T13:17:12.698Z,3.93
2018-04-27T13:19:40.133Z,2.60
2018-04-27T13:22:07.645Z,1.93
2018-04-27T13:24:35.573Z,6.47
2018-04-27T13:27:03.925Z,4.80
2018-04-27T13:29:32.196Z,2.63
2018-04-27T13:31:59.700Z,3.30
2018-04-27T13:34:27.287Z,1.87
2018-04-27T13:36:55.870Z,2.17
2018-04-27T13:39:23.406Z,2.60
2018-04-27T13:41:50.876Z,5.20
2018-04-27T13:44:18.353Z,4.30
2018-04-27T13:46:46.690Z,3.50
2018-04-27T13:49:14.175Z,3.47
2018-04-27T13:51:42.304Z,4.60
2018-04-27T13:54:10.620Z,8.63
2018-04-27T13:56:38.462Z,2.70
2018-04-27T13:59:06.749Z,4.53
2018-04-27T14:01:34.233Z,1.83
2018-04-27T14:04:01.749Z,2.50
2018-04-27T14:06:29.393Z,4.80
2018-04-27T14:08:56.898Z,2.00
2018-04-27T14:11:24.575Z,1.87
2018-04-27T14:13:52.062Z,4.43
2018-04-27T14:16:20.223Z,5.53
2018-04-27T14:18:47.654Z,3.00
2018-04-27T14:21:16.186Z,3.77
2018-04-27T14:23:43.683Z,5.67
2018-04-27T14:26:12.016Z,4.33
2018-04-27T14:28:40.225Z,7.13
2018-04-27T14:31:07.831Z,4.67
2018-04-27T14:33:36.152Z,7.80
2018-04-27T14:36:04.440Z,6.00
2018-04-27T14:38:31.924Z,5.43
2018-04-27T14:40:59.492Z,3.00
2018-04-27T14:43:26.906Z,16.27
2018-04-27T14:45:54.450Z,4.97
2018-04-27T14:48:22.005Z,3.23
2018-04-27T14:50:50.296Z,6.47
2018-04-27T14:53:17.780Z,11.57
2018-04-27T14:55:45.293Z,5.13
2018-04-27T14:58:12.975Z,5.50
2018-04-27T15:00:40.471Z,1.13
2018-04-27T15:03:08.708Z,5.33
2018-04-27T15:05:36.244Z,3.23
2018-04-27T15:08:03.712Z,4.40
2018-04-27T15:10:31.173Z,2.33
2018-04-27T15:12:58.776Z,6.83
2018-04-27T15:15:27.053Z,1.60
2018-04-27T15:17:55.342Z,2.23
2018-04-27T15:20:22.876Z,2.20
2018-04-27T15:22:50.421Z,2.80
2018-04-27T15:25:17.924Z,2.03
2018-04-27T15:27:45.430Z,3.47
2018-04-27T15:30:13.430Z,2.63
2018-04-27T15:32:41.746Z,4.90
2018-04-27T15:35:09.225Z,1.70
2018-04-27T15:37:37.515Z,18.43
2018-04-27T15:40:05.580Z,58.07
2018-04-27T15:42:33.201Z,2.23
2018-04-27T15:45:00.752Z,10.17
2018-04-27T15:47:28.977Z,3.90
2018-04-27T15:49:57.804Z,1.67
2018-04-27T15:52:25.377Z,2.87
2018-04-27T15:54:52.983Z,8.73
2018-04-27T15:57:20.522Z,10.60
2018-04-27T15:59:48.779Z,3.37
2018-04-27T16:02:16.404Z,2.20
2018-04-27T16:04:43.898Z,3.13
2018-04-27T16:07:11.599Z,5.43
2018-04-27T16:09:40.039Z,4.97
2018-04-27T16:12:07.712Z,6.40
2018-04-27T16:14:36.455Z,3.40
2018-04-27T16:17:04.432Z,2.87
2018-04-27T16:19:31.946Z,3.07
2018-04-27T16:21:59.639Z,2.23
2018-04-27T16:24:27.135Z,3.73
2018-04-27T16:26:54.660Z,17.07
2018-04-27T16:29:22.353Z,4.73
2018-04-27T16:31:49.885Z,5.47
2018-04-27T16:34:18.190Z,3.60
2018-04-27T16:36:45.754Z,3.63
2018-04-27T16:39:13.302Z,11.40
2018-04-27T16:41:40.851Z,3.03
2018-04-27T16:44:08.387Z,16.77
2018-04-27T16:46:35.833Z,3.77
2018-04-27T16:49:04.228Z,6.40
2018-04-27T16:51:31.728Z,1.77
2018-04-27T16:53:59.218Z,1.20
2018-04-27T16:56:26.740Z,7.37
2018-04-27T16:58:54.325Z,5.00
2018-04-27T17:01:22.632Z,5.87
2018-04-27T17:03:50.723Z,2.07
2018-04-27T17:06:18.420Z,6.50
2018-04-27T17:08:46.732Z,2.90
2018-04-27T17:11:14.320Z,5.60
2018-04-27T17:13:41.859Z,7.60
2018-04-27T17:16:09.584Z,5.67
2018-04-27T17:18:37.092Z,11.07
2018-04-27T17:21:04.691Z,6.80
2018-04-27T17:23:32.298Z,6.20
2018-04-27T17:26:00.252Z,4.83
2018-04-27T17:28:27.828Z,3.37
2018-04-27T17:30:55.526Z,12.70
2018-04-27T17:33:25.053Z,15.30
2018-04-27T17:35:54.087Z,5.27
2018-04-27T17:38:24.899Z,1.43
2018-04-27T17:40:52.586Z,8.30
2018-04-27T17:43:20.227Z,3.70
2018-04-27T17:45:49.289Z,4.87
2018-04-27T17:48:17.570Z,2.20
2018-04-27T17:50:45.146Z,4.07
2018-04-27T17:53:12.810Z,2.53
2018-04-27T17:55:41.052Z,2.90
2018-04-27T17:58:08.542Z,2.33
2018-04-27T18:00:36.063Z,1.90
2018-04-27T18:03:04.513Z,4.73
2018-04-27T18:05:32.047Z,5.13
2018-04-27T18:07:59.593Z,4.33
2018-04-27T18:10:27.119Z,6.10
2018-04-27T18:12:54.699Z,21.10
2018-04-27T18:15:22.884Z,10.60
2018-04-27T18:17:50.381Z,72.17
2018-04-27T18:20:19.471Z,2.37
2018-04-27T18:22:47.387Z,6.60
2018-04-27T18:25:14.859Z,3.23
2018-04-27T18:27:43.238Z,7.23
2018-04-27T18:30:10.770Z,8.63
2018-04-27T18:32:38.281Z,5.53
2018-04-27T18:35:06.787Z,8.30
2018-04-27T18:37:34.452Z,3.83
2018-04-27T18:40:02.719Z,8.33
2018-04-27T18:42:31.100Z,13.10
2018-04-27T18:44:59.171Z,20.87
2018-04-27T18:47:27.461Z,9.77
2018-04-27T18:49:57.326Z,12.47
2018-04-27T18:52:24.838Z,22.53
2018-04-27T18:54:53.200Z,22.83
2018-04-27T18:57:20.775Z,4.83
2018-04-27T18:59:48.371Z,6.90
2018-04-27T19:02:15.832Z,8.67
2018-04-27T19:04:44.154Z,15.63
2018-04-27T19:07:11.756Z,11.30
2018-04-27T19:09:39.606Z,5.40
2018-04-27T19:12:07.303Z,7.60
2018-04-27T19:14:36.343Z,5.57
2018-04-27T19:17:04.706Z,5.90
2018-04-27T19:19:32.211Z,5.47
2018-04-27T19:22:00.608Z,7.10
2018-04-27T19:24:28.095Z,6.60
2018-04-27T19:26:55.593Z,15.73
2018-04-27T19:29:23.194Z,8.00
2018-04-27T19:31:51.541Z,9.07
2018-04-27T19:34:19.498Z,11.63
2018-04-27T19:36:48.011Z,6.10
2018-04-27T19:39:15.624Z,4.90
2018-04-27T19:41:44.582Z,6.77
2018-04-27T19:44:12.295Z,7.13
2018-04-27T19:46:39.792Z,11.30
2018-04-27T19:49:07.306Z,7.43
2018-04-27T19:51:35.628Z,8.10
2018-04-27T19:54:03.223Z,15.43
2018-04-27T19:56:31.109Z,15.87
2018-04-27T19:58:58.652Z,8.43
2018-04-27T20:01:26.179Z,8.73
2018-04-27T20:03:53.715Z,4.90
2018-04-27T20:06:22.005Z,8.90
2018-04-27T20:08:49.534Z,18.23
2018-04-27T20:11:17.105Z,10.33
2018-04-27T20:13:45.363Z,11.47
2018-04-27T20:16:13.887Z,11.30
2018-04-27T20:18:41.445Z,8.70
2018-04-27T20:21:09.015Z,9.33
2018-04-27T20:23:36.543Z,14.83
2018-04-27T20:26:04.138Z,11.13
2018-04-27T20:28:31.681Z,10.83
2018-04-27T20:31:00.011Z,13.60
2018-04-27T20:33:29.368Z,6.47
2018-04-27T20:35:57.700Z,14.90
2018-04-27T20:38:25.248Z,5.60
2018-04-27T20:40:52.855Z,11.90
2018-04-27T20:43:22.122Z,5.33
2018-04-27T20:45:50.159Z,7.80
2018-04-27T20:48:17.775Z,8.73
2018-04-27T20:50:45.968Z,6.70
2018-04-27T20:53:14.142Z,17.17
2018-04-27T20:55:41.646Z,8.33
2018-04-27T20:58:09.615Z,11.43
2018-04-27T21:00:37.184Z,14.03
2018-04-27T21:03:04.751Z,9.00
2018-04-27T21:05:32.289Z,12.53
2018-04-27T21:07:59.864Z,20.00
2018-04-27T21:10:27.321Z,10.60
2018-04-27T21:12:54.835Z,10.53
2018-04-27T21:15:22.651Z,14.87
2018-04-27T21:17:50.121Z,18.77
2018-04-27T21:20:17.648Z,11.80
2018-04-27T21:22:45.134Z,10.13
2018-04-27T21:25:13.360Z,17.70
2018-04-27T21:27:40.898Z,14.20
2018-04-27T21:30:08.580Z,30.43
2018-04-27T21:32:35.965Z,6.83
2018-04-27T21:35:03.548Z,12.70
2018-04-27T21:37:31.043Z,19.30
2018-04-27T21:39:58.600Z,9.80
2018-04-27T21:42:26.071Z,6.53
2018-04-27T21:44:53.596Z,9.90
2018-04-27T21:47:21.123Z,10.97
2018-04-27T21:49:48.636Z,11.73
2018-04-27T21:52:16.125Z,5.30
2018-04-27T21:54:43.724Z,10.10
2018-04-27T21:57:11.265Z,12.33
2018-04-27T21:59:39.464Z,8.37
2018-04-27T22:02:07.084Z,13.57
2018-04-27T22:04:34.508Z,7.33
2018-04-27T22:07:02.842Z,9.30
2018-04-27T22:09:30.307Z,6.87
2018-04-27T22:11:57.881Z,9.20
2018-04-27T22:14:25.460Z,13.33
2018-04-27T22:16:52.972Z,6.50
2018-04-27T22:19:20.414Z,17.43
2018-04-27T22:21:48.745Z,8.97
2018-04-27T22:24:16.997Z,15.87
2018-04-27T22:26:45.277Z,10.10
2018-04-27T22:29:12.833Z,14.67
2018-04-27T22:31:40.484Z,12.43
2018-04-27T22:34:07.876Z,11.00
2018-04-27T22:36:35.465Z,13.90
2018-04-27T22:39:02.951Z,6.97
2018-04-27T22:41:30.502Z,6.53
2018-04-27T22:43:58.014Z,9.27
2018-04-27T22:46:26.307Z,8.60
2018-04-27T22:48:53.854Z,11.47
2018-04-27T22:51:21.663Z,9.47
2018-04-27T22:53:49.960Z,7.37
2018-04-27T22:56:17.671Z,7.10
2018-04-27T22:58:45.948Z,15.03
2018-04-27T23:01:14.826Z,7.43
2018-04-27T23:03:42.362Z,17.53
2018-04-27T23:06:09.868Z,8.27
2018-04-27T23:08:38.166Z,14.53
2018-04-27T23:11:06.819Z,10.27
2018-04-27T23:13:34.320Z,7.90
2018-04-27T23:16:01.968Z,10.70
2018-04-27T23:18:29.879Z,10.13
2018-04-27T23:20:57.426Z,20.07
2018-04-27T23:23:25.737Z,10.43
2018-04-27T23:25:53.253Z,9.57
2018-04-27T23:28:20.808Z,8.77
2018-04-27T23:30:49.342Z,13.37
2018-04-27T23:33:16.814Z,11.70
2018-04-27T23:35:44.252Z,8.77
2018-04-27T23:38:11.777Z,8.03
2018-04-27T23:40:39.312Z,9.33
2018-04-27T23:43:06.769Z,10.27
2018-04-27T23:45:34.329Z,7.23
2018-04-27T23:48:01.800Z,9.13
2018-04-27T23:50:29.339Z,12.10
2018-04-27T23:52:56.843Z,8.57
2018-04-27T23:55:24.380Z,14.53
2018-04-27T23:57:51.875Z,12.40
